OEO674 LFSB-EIKN
Flight info
| Callsign | OEO674 |
|---|---|
| Flight time | 1h 54m |
| Altitude | 40000 |
| Route | ELBEG DCT BEGAR DCT SUTAL N852 DIK M624 BUB L608 DENUT L610 KOPUL Q60 OKSAW DCT LANON DCT RINUS DCT WOWEC WOWEC1B |
| Aircraft | CL60/M-SADE3FGHIJ3J4J7P2RWXY/HB1D1 |
Departure
| Time | 2026-05-07 18:02 |
|---|---|
| Airport | EuroAirport Basel–Mulhouse–Freiburg (LFSB) |
Arrival
| Time | 2026-05-07 19:56 |
|---|---|
| Airport | Ireland West Airport Knock (EIKN) |
| Time | Latitude | Longitude | Altitude | Speed | Heading |
|---|---|---|---|---|---|
| 2026-05-07 17:14 | 47.59244 | 7.53560 | 870 ft | 0 kts | 162° |
| 2026-05-07 17:53 | 47.59248 | 7.53578 | 870 ft | 5 kts | 25° |
| 2026-05-07 17:54 | 47.59274 | 7.53620 | 868 ft | 6 kts | 76° |
| 2026-05-07 17:54 | 47.59257 | 7.53703 | 867 ft | 10 kts | 125° |
| 2026-05-07 17:54 | 47.59205 | 7.53667 | 870 ft | 11 kts | 255° |
| 2026-05-07 17:54 | 47.59185 | 7.53557 | 873 ft | 10 kts | 258° |
| 2026-05-07 17:55 | 47.59171 | 7.53459 | 875 ft | 9 kts | 257° |
| 2026-05-07 17:55 | 47.59154 | 7.53350 | 876 ft | 12 kts | 258° |
| 2026-05-07 17:55 | 47.59177 | 7.53218 | 874 ft | 15 kts | 305° |
| 2026-05-07 17:55 | 47.59201 | 7.53071 | 873 ft | 15 kts | 324° |
| 2026-05-07 17:56 | 47.59307 | 7.52996 | 872 ft | 18 kts | 334° |
| 2026-05-07 17:56 | 47.59427 | 7.52912 | 872 ft | 20 kts | 335° |
| 2026-05-07 17:56 | 47.59561 | 7.52817 | 872 ft | 22 kts | 335° |
| 2026-05-07 17:56 | 47.59708 | 7.52716 | 870 ft | 24 kts | 335° |
| 2026-05-07 17:57 | 47.59871 | 7.52604 | 868 ft | 26 kts | 336° |
| 2026-05-07 17:57 | 47.59989 | 7.52522 | 866 ft | 28 kts | 334° |
| 2026-05-07 17:57 | 47.60238 | 7.52348 | 863 ft | 31 kts | 335° |
| 2026-05-07 17:57 | 47.60417 | 7.52224 | 861 ft | 27 kts | 335° |
| 2026-05-07 17:58 | 47.60594 | 7.52100 | 857 ft | 29 kts | 335° |
| 2026-05-07 17:58 | 47.60790 | 7.51965 | 852 ft | 32 kts | 335° |
| 2026-05-07 17:58 | 47.61000 | 7.51819 | 846 ft | 34 kts | 334° |
| 2026-05-07 17:58 | 47.61222 | 7.51665 | 846 ft | 35 kts | 335° |
| 2026-05-07 17:59 | 47.61434 | 7.51516 | 852 ft | 33 kts | 333° |
| 2026-05-07 17:59 | 47.61639 | 7.51373 | 852 ft | 31 kts | 335° |
| 2026-05-07 17:59 | 47.61776 | 7.51274 | 856 ft | 14 kts | 320° |
| 2026-05-07 17:59 | 47.61803 | 7.51144 | 855 ft | 11 kts | 255° |
| 2026-05-07 18:00 | 47.61801 | 7.51138 | 856 ft | 0 kts | 253° |
| 2026-05-07 18:01 | 47.61801 | 7.51134 | 856 ft | 2 kts | 252° |
| 2026-05-07 18:01 | 47.61780 | 7.51065 | 855 ft | 10 kts | 243° |
| 2026-05-07 18:01 | 47.61719 | 7.51024 | 855 ft | 13 kts | 159° |
| 2026-05-07 18:01 | 47.61525 | 7.51157 | 853 ft | 73 kts | 155° |
| 2026-05-07 18:02 | 47.59692 | 7.52411 | 1500 ft | 181 kts | 154° |
| 2026-05-07 18:02 | 47.58546 | 7.53267 | 2367 ft | 193 kts | 150° |
| 2026-05-07 18:02 | 47.57334 | 7.54121 | 3332 ft | 202 kts | 161° |
| 2026-05-07 18:03 | 47.55911 | 7.54023 | 4157 ft | 223 kts | 201° |
| 2026-05-07 18:03 | 47.54693 | 7.52531 | 4997 ft | 243 kts | 237° |
| 2026-05-07 18:03 | 47.54217 | 7.50114 | 5954 ft | 250 kts | 268° |
| 2026-05-07 18:03 | 47.54587 | 7.47668 | 6927 ft | 258 kts | 296° |
| 2026-05-07 18:04 | 47.55797 | 7.45717 | 6983 ft | 253 kts | 332° |
| 2026-05-07 18:04 | 47.57452 | 7.45264 | 7255 ft | 241 kts | 5° |
| 2026-05-07 18:04 | 47.59026 | 7.45484 | 7860 ft | 245 kts | 5° |
| 2026-05-07 18:04 | 47.60767 | 7.45708 | 8497 ft | 254 kts | 4° |
| 2026-05-07 18:05 | 47.62532 | 7.45915 | 9118 ft | 258 kts | 6° |
| 2026-05-07 18:05 | 47.64267 | 7.46689 | 9753 ft | 263 kts | 28° |
| 2026-05-07 18:05 | 47.65698 | 7.48399 | 10392 ft | 268 kts | 52° |
| 2026-05-07 18:05 | 47.66557 | 7.50840 | 11027 ft | 280 kts | 76° |
| 2026-05-07 18:06 | 47.66978 | 7.53800 | 11656 ft | 310 kts | 81° |
| 2026-05-07 18:06 | 47.67398 | 7.57066 | 12261 ft | 339 kts | 80° |
| 2026-05-07 18:06 | 47.67905 | 7.60621 | 12878 ft | 363 kts | 74° |
| 2026-05-07 18:06 | 47.69052 | 7.64046 | 13522 ft | 377 kts | 54° |
| 2026-05-07 18:07 | 47.70906 | 7.66821 | 14155 ft | 382 kts | 34° |
| 2026-05-07 18:07 | 47.73250 | 7.68520 | 14786 ft | 381 kts | 14° |
| 2026-05-07 18:07 | 47.75857 | 7.68954 | 15417 ft | 380 kts | 354° |
| 2026-05-07 18:07 | 47.78411 | 7.68061 | 16051 ft | 379 kts | 335° |
| 2026-05-07 18:08 | 47.80784 | 7.66275 | 16661 ft | 381 kts | 330° |
| 2026-05-07 18:08 | 47.83028 | 7.64500 | 17266 ft | 383 kts | 330° |
| 2026-05-07 18:08 | 47.85393 | 7.62636 | 17897 ft | 386 kts | 330° |
| 2026-05-07 18:08 | 47.87769 | 7.60764 | 18528 ft | 389 kts | 330° |
| 2026-05-07 18:09 | 47.90178 | 7.58866 | 19170 ft | 393 kts | 331° |
| 2026-05-07 18:09 | 47.92625 | 7.57031 | 19804 ft | 397 kts | 332° |
| 2026-05-07 18:09 | 47.95094 | 7.55204 | 20432 ft | 400 kts | 332° |
| 2026-05-07 18:09 | 47.97602 | 7.53345 | 21070 ft | 403 kts | 332° |
| 2026-05-07 18:10 | 48.00112 | 7.51482 | 21707 ft | 406 kts | 332° |
| 2026-05-07 18:10 | 48.02578 | 7.49650 | 22330 ft | 410 kts | 332° |
| 2026-05-07 18:10 | 48.05116 | 7.47764 | 23081 ft | 414 kts | 332° |
| 2026-05-07 18:10 | 48.07699 | 7.45841 | 23872 ft | 417 kts | 332° |
| 2026-05-07 18:11 | 48.10287 | 7.43913 | 24638 ft | 419 kts | 332° |
| 2026-05-07 18:11 | 48.12032 | 7.42613 | 25126 ft | 421 kts | 332° |
| 2026-05-07 18:11 | 48.15569 | 7.39973 | 26004 ft | 426 kts | 332° |
| 2026-05-07 18:11 | 48.18221 | 7.37991 | 26598 ft | 429 kts | 332° |
| 2026-05-07 18:12 | 48.20868 | 7.36010 | 27165 ft | 432 kts | 332° |
| 2026-05-07 18:12 | 48.23608 | 7.33958 | 27715 ft | 435 kts | 331° |
| 2026-05-07 18:12 | 48.26324 | 7.31921 | 28224 ft | 439 kts | 331° |
| 2026-05-07 18:12 | 48.29063 | 7.29865 | 28706 ft | 442 kts | 331° |
| 2026-05-07 18:13 | 48.31845 | 7.27774 | 29168 ft | 445 kts | 331° |
| 2026-05-07 18:13 | 48.34623 | 7.25683 | 29581 ft | 448 kts | 331° |
| 2026-05-07 18:13 | 48.37408 | 7.23585 | 29977 ft | 450 kts | 331° |
| 2026-05-07 18:13 | 48.40236 | 7.21452 | 30366 ft | 453 kts | 331° |
| 2026-05-07 18:14 | 48.43068 | 7.19313 | 30784 ft | 453 kts | 331° |
| 2026-05-07 18:14 | 48.45858 | 7.17204 | 31326 ft | 449 kts | 331° |
| 2026-05-07 18:14 | 48.48641 | 7.15098 | 31936 ft | 444 kts | 331° |
| 2026-05-07 18:14 | 48.51406 | 7.13003 | 32519 ft | 439 kts | 331° |
| 2026-05-07 18:15 | 48.54117 | 7.10946 | 33038 ft | 436 kts | 331° |
| 2026-05-07 18:15 | 48.56819 | 7.08894 | 33501 ft | 434 kts | 330° |
| 2026-05-07 18:15 | 48.59509 | 7.06847 | 33897 ft | 434 kts | 330° |
| 2026-05-07 18:15 | 48.62184 | 7.04809 | 34261 ft | 434 kts | 330° |
| 2026-05-07 18:16 | 48.64882 | 7.02751 | 34594 ft | 434 kts | 330° |
| 2026-05-07 18:16 | 48.67564 | 7.00703 | 34864 ft | 435 kts | 330° |
| 2026-05-07 18:16 | 48.70265 | 6.98639 | 35169 ft | 435 kts | 330° |
| 2026-05-07 18:16 | 48.72968 | 6.96570 | 35445 ft | 435 kts | 330° |
| 2026-05-07 18:17 | 48.75656 | 6.94510 | 35707 ft | 435 kts | 330° |
| 2026-05-07 18:17 | 48.78348 | 6.92445 | 35963 ft | 435 kts | 330° |
| 2026-05-07 18:17 | 48.81060 | 6.90362 | 36211 ft | 435 kts | 330° |
| 2026-05-07 18:17 | 48.83632 | 6.88383 | 36437 ft | 435 kts | 330° |
| 2026-05-07 18:18 | 48.86304 | 6.86326 | 36666 ft | 435 kts | 330° |
| 2026-05-07 18:18 | 48.88866 | 6.84351 | 36859 ft | 436 kts | 330° |
| 2026-05-07 18:18 | 48.91586 | 6.82251 | 37054 ft | 436 kts | 330° |
| 2026-05-07 18:18 | 48.94275 | 6.80173 | 37240 ft | 437 kts | 330° |
| 2026-05-07 18:19 | 48.96979 | 6.78081 | 37420 ft | 438 kts | 330° |
| 2026-05-07 18:19 | 48.99699 | 6.75975 | 37597 ft | 438 kts | 330° |
| 2026-05-07 18:19 | 49.02397 | 6.73882 | 37761 ft | 439 kts | 330° |
| 2026-05-07 18:19 | 49.05106 | 6.71706 | 37917 ft | 438 kts | 327° |
| 2026-05-07 18:20 | 49.07646 | 6.69091 | 38064 ft | 436 kts | 319° |
| 2026-05-07 18:20 | 49.09879 | 6.66043 | 38218 ft | 434 kts | 312° |
| 2026-05-07 18:20 | 49.11976 | 6.62688 | 38369 ft | 435 kts | 311° |
| 2026-05-07 18:20 | 49.14087 | 6.59282 | 38520 ft | 435 kts | 311° |
| 2026-05-07 18:21 | 49.16056 | 6.56105 | 38653 ft | 436 kts | 311° |
| 2026-05-07 18:21 | 49.18157 | 6.52710 | 38794 ft | 436 kts | 311° |
| 2026-05-07 18:21 | 49.20238 | 6.49342 | 38943 ft | 437 kts | 311° |
| 2026-05-07 18:21 | 49.22339 | 6.45941 | 39100 ft | 437 kts | 311° |
| 2026-05-07 18:22 | 49.24400 | 6.42595 | 39245 ft | 437 kts | 311° |
| 2026-05-07 18:22 | 49.28594 | 6.35778 | 39522 ft | 438 kts | 311° |
| 2026-05-07 18:22 | 49.30676 | 6.32387 | 39656 ft | 438 kts | 310° |
| 2026-05-07 18:23 | 49.32766 | 6.28977 | 39796 ft | 438 kts | 310° |
| 2026-05-07 18:23 | 49.34844 | 6.25584 | 39920 ft | 439 kts | 310° |
| 2026-05-07 18:23 | 49.36911 | 6.22204 | 40029 ft | 439 kts | 310° |
| 2026-05-07 18:24 | 49.41154 | 6.15248 | 40033 ft | 446 kts | 310° |
| 2026-05-07 18:24 | 49.45402 | 6.08268 | 40031 ft | 450 kts | 310° |
| 2026-05-07 18:25 | 49.49674 | 6.01228 | 40034 ft | 452 kts | 310° |
| 2026-05-07 18:25 | 49.53950 | 5.94164 | 40033 ft | 453 kts | 310° |
| 2026-05-07 18:26 | 49.58205 | 5.87114 | 40036 ft | 452 kts | 310° |
| 2026-05-07 18:26 | 49.62503 | 5.79975 | 40031 ft | 452 kts | 310° |
| 2026-05-07 18:27 | 49.66752 | 5.72895 | 40032 ft | 452 kts | 310° |
| 2026-05-07 18:27 | 49.71014 | 5.65775 | 40029 ft | 452 kts | 310° |
| 2026-05-07 18:28 | 49.75255 | 5.58670 | 40029 ft | 452 kts | 310° |
| 2026-05-07 18:28 | 49.79529 | 5.51490 | 40034 ft | 452 kts | 310° |
| 2026-05-07 18:29 | 49.83779 | 5.44329 | 40031 ft | 452 kts | 310° |
| 2026-05-07 18:29 | 49.88002 | 5.37196 | 40022 ft | 453 kts | 310° |
| 2026-05-07 18:30 | 49.92284 | 5.29941 | 40021 ft | 453 kts | 310° |
| 2026-05-07 18:30 | 49.96517 | 5.22749 | 40023 ft | 453 kts | 310° |
| 2026-05-07 18:31 | 50.00771 | 5.15503 | 40024 ft | 453 kts | 310° |
| 2026-05-07 18:31 | 50.04991 | 5.08291 | 40027 ft | 452 kts | 310° |
| 2026-05-07 18:32 | 50.09220 | 5.01044 | 40028 ft | 452 kts | 310° |
| 2026-05-07 18:32 | 50.13419 | 4.93830 | 40027 ft | 453 kts | 310° |
| 2026-05-07 18:33 | 50.17652 | 4.86536 | 40025 ft | 453 kts | 310° |
| 2026-05-07 18:33 | 50.21869 | 4.79247 | 40029 ft | 454 kts | 310° |
| 2026-05-07 18:34 | 50.26092 | 4.71929 | 40035 ft | 454 kts | 310° |
| 2026-05-07 18:34 | 50.30303 | 4.64610 | 40036 ft | 454 kts | 310° |
| 2026-05-07 18:35 | 50.34520 | 4.57258 | 40039 ft | 454 kts | 310° |
| 2026-05-07 18:35 | 50.38718 | 4.49921 | 40044 ft | 454 kts | 310° |
| 2026-05-07 18:36 | 50.42793 | 4.42777 | 40045 ft | 454 kts | 310° |
| 2026-05-07 18:36 | 50.47008 | 4.35367 | 40044 ft | 454 kts | 310° |
| 2026-05-07 18:37 | 50.51185 | 4.28003 | 40042 ft | 454 kts | 309° |
| 2026-05-07 18:37 | 50.55312 | 4.20706 | 40038 ft | 454 kts | 309° |
| 2026-05-07 18:38 | 50.59510 | 4.13260 | 40036 ft | 454 kts | 309° |
| 2026-05-07 18:38 | 50.63677 | 4.05849 | 40033 ft | 454 kts | 309° |
| 2026-05-07 18:39 | 50.67857 | 3.98393 | 40032 ft | 454 kts | 309° |
| 2026-05-07 18:39 | 50.72008 | 3.90968 | 40033 ft | 453 kts | 309° |
| 2026-05-07 18:40 | 50.76158 | 3.83521 | 40032 ft | 453 kts | 309° |
| 2026-05-07 18:40 | 50.80326 | 3.76023 | 40032 ft | 454 kts | 309° |
| 2026-05-07 18:41 | 50.84464 | 3.68554 | 40037 ft | 454 kts | 309° |
| 2026-05-07 18:41 | 50.88622 | 3.61027 | 40036 ft | 454 kts | 309° |
| 2026-05-07 18:42 | 50.92758 | 3.53519 | 40038 ft | 454 kts | 309° |
| 2026-05-07 18:42 | 50.96902 | 3.45975 | 40038 ft | 454 kts | 309° |
| 2026-05-07 18:43 | 51.01038 | 3.38421 | 40047 ft | 454 kts | 309° |
| 2026-05-07 18:43 | 51.05168 | 3.30857 | 40046 ft | 455 kts | 308° |
| 2026-05-07 18:44 | 51.09302 | 3.23263 | 40054 ft | 454 kts | 308° |
| 2026-05-07 18:44 | 51.13420 | 3.15675 | 40059 ft | 454 kts | 309° |
| 2026-05-07 18:45 | 51.17550 | 3.08043 | 40057 ft | 455 kts | 309° |
| 2026-05-07 18:45 | 51.21573 | 3.00586 | 40062 ft | 455 kts | 309° |
| 2026-05-07 18:46 | 51.25699 | 2.92916 | 40063 ft | 455 kts | 309° |
| 2026-05-07 18:46 | 51.29809 | 2.85253 | 40062 ft | 456 kts | 309° |
| 2026-05-07 18:47 | 51.33581 | 2.77201 | 40064 ft | 453 kts | 298° |
| 2026-05-07 18:47 | 51.35960 | 2.68404 | 40062 ft | 449 kts | 285° |
| 2026-05-07 18:48 | 51.37270 | 2.58720 | 40060 ft | 448 kts | 280° |
| 2026-05-07 18:48 | 51.38470 | 2.48912 | 40061 ft | 449 kts | 280° |
| 2026-05-07 18:49 | 51.39653 | 2.39174 | 40060 ft | 449 kts | 280° |
| 2026-05-07 18:49 | 51.40836 | 2.29354 | 40060 ft | 449 kts | 279° |
| 2026-05-07 18:50 | 51.41940 | 2.20264 | 40059 ft | 449 kts | 279° |
| 2026-05-07 18:50 | 51.43087 | 2.10861 | 40060 ft | 449 kts | 279° |
| 2026-05-07 18:51 | 51.44276 | 2.01046 | 40060 ft | 449 kts | 279° |
| 2026-05-07 18:51 | 51.45441 | 1.91210 | 40065 ft | 449 kts | 279° |
| 2026-05-07 18:52 | 51.46355 | 1.81315 | 40061 ft | 448 kts | 276° |
| 2026-05-07 18:52 | 51.47175 | 1.71444 | 40059 ft | 449 kts | 276° |
| 2026-05-07 18:53 | 51.47990 | 1.61563 | 40061 ft | 449 kts | 276° |
| 2026-05-07 18:53 | 51.48799 | 1.51657 | 40063 ft | 449 kts | 276° |
| 2026-05-07 18:54 | 51.49604 | 1.41697 | 40063 ft | 449 kts | 276° |
| 2026-05-07 18:54 | 51.50395 | 1.31820 | 40062 ft | 449 kts | 276° |
| 2026-05-07 18:55 | 51.51186 | 1.21833 | 40062 ft | 449 kts | 275° |
| 2026-05-07 18:55 | 51.51961 | 1.11944 | 40062 ft | 448 kts | 276° |
| 2026-05-07 18:56 | 51.52729 | 1.02041 | 40062 ft | 448 kts | 276° |
| 2026-05-07 18:56 | 51.53486 | 0.92158 | 40063 ft | 448 kts | 276° |
| 2026-05-07 18:57 | 51.54241 | 0.82200 | 40064 ft | 449 kts | 276° |
| 2026-05-07 18:57 | 51.54969 | 0.72481 | 40059 ft | 449 kts | 276° |
| 2026-05-07 18:58 | 51.55703 | 0.62570 | 40057 ft | 449 kts | 276° |
| 2026-05-07 18:58 | 51.56430 | 0.52647 | 40058 ft | 449 kts | 276° |
| 2026-05-07 18:59 | 51.57149 | 0.42701 | 40051 ft | 449 kts | 276° |
| 2026-05-07 18:59 | 51.57862 | 0.32738 | 40048 ft | 448 kts | 275° |
| 2026-05-07 19:00 | 51.58562 | 0.22827 | 40049 ft | 448 kts | 275° |
| 2026-05-07 19:00 | 51.59255 | 0.12897 | 40049 ft | 448 kts | 275° |
| 2026-05-07 19:01 | 51.59940 | 0.02955 | 40042 ft | 448 kts | 275° |
| 2026-05-07 19:01 | 51.60617 | -0.06993 | 40042 ft | 449 kts | 275° |
| 2026-05-07 19:02 | 51.61287 | -0.16978 | 40039 ft | 449 kts | 275° |
| 2026-05-07 19:02 | 51.61946 | -0.26907 | 40039 ft | 449 kts | 275° |
| 2026-05-07 19:03 | 51.62600 | -0.36897 | 40043 ft | 449 kts | 275° |
| 2026-05-07 19:03 | 51.63242 | -0.46838 | 40041 ft | 449 kts | 275° |
| 2026-05-07 19:04 | 51.63876 | -0.56785 | 40040 ft | 449 kts | 275° |
| 2026-05-07 19:04 | 51.64502 | -0.66752 | 40038 ft | 449 kts | 274° |
| 2026-05-07 19:05 | 51.65119 | -0.76701 | 40034 ft | 449 kts | 274° |
| 2026-05-07 19:05 | 51.65706 | -0.86297 | 40033 ft | 449 kts | 274° |
| 2026-05-07 19:06 | 51.66305 | -0.96232 | 40028 ft | 449 kts | 274° |
| 2026-05-07 19:06 | 51.67190 | -1.11178 | 40028 ft | 448 kts | 274° |
| 2026-05-07 19:07 | 51.67773 | -1.21191 | 40028 ft | 448 kts | 274° |
| 2026-05-07 19:07 | 51.68337 | -1.31028 | 40028 ft | 448 kts | 274° |
| 2026-05-07 19:08 | 51.68880 | -1.40653 | 40028 ft | 449 kts | 274° |
| 2026-05-07 19:08 | 51.69455 | -1.50992 | 40028 ft | 449 kts | 274° |
| 2026-05-07 19:09 | 51.70001 | -1.60966 | 40028 ft | 448 kts | 274° |
| 2026-05-07 19:09 | 51.71205 | -1.70801 | 40030 ft | 451 kts | 287° |
| 2026-05-07 19:10 | 51.73700 | -1.80053 | 40027 ft | 452 kts | 292° |
| 2026-05-07 19:10 | 51.76316 | -1.89257 | 40027 ft | 452 kts | 292° |
| 2026-05-07 19:11 | 51.78912 | -1.98429 | 40028 ft | 452 kts | 292° |
| 2026-05-07 19:11 | 51.81520 | -2.07678 | 40026 ft | 451 kts | 292° |
| 2026-05-07 19:12 | 51.84123 | -2.16940 | 40025 ft | 452 kts | 292° |
| 2026-05-07 19:12 | 51.86609 | -2.25820 | 40022 ft | 453 kts | 292° |
| 2026-05-07 19:13 | 51.89190 | -2.35078 | 40024 ft | 453 kts | 292° |
| 2026-05-07 19:13 | 51.91761 | -2.44330 | 40021 ft | 453 kts | 293° |
| 2026-05-07 19:14 | 51.94344 | -2.53666 | 40016 ft | 453 kts | 292° |
| 2026-05-07 19:14 | 51.96907 | -2.62963 | 40011 ft | 453 kts | 292° |
| 2026-05-07 19:15 | 51.99459 | -2.72258 | 40005 ft | 452 kts | 292° |
| 2026-05-07 19:15 | 52.02003 | -2.81561 | 40014 ft | 451 kts | 291° |
| 2026-05-07 19:16 | 52.04505 | -2.90749 | 40019 ft | 451 kts | 292° |
| 2026-05-07 19:16 | 52.07020 | -3.00020 | 40012 ft | 452 kts | 292° |
| 2026-05-07 19:17 | 52.09543 | -3.09357 | 40016 ft | 452 kts | 292° |
| 2026-05-07 19:17 | 52.12011 | -3.18527 | 40008 ft | 453 kts | 292° |
| 2026-05-07 19:18 | 52.14525 | -3.27907 | 40002 ft | 453 kts | 292° |
| 2026-05-07 19:18 | 52.17033 | -3.37302 | 39991 ft | 453 kts | 292° |
| 2026-05-07 19:19 | 52.19540 | -3.46731 | 39985 ft | 452 kts | 292° |
| 2026-05-07 19:19 | 52.22038 | -3.56166 | 39988 ft | 452 kts | 292° |
| 2026-05-07 19:20 | 52.24511 | -3.65542 | 39984 ft | 452 kts | 291° |
| 2026-05-07 19:20 | 52.26968 | -3.74898 | 39984 ft | 452 kts | 291° |
| 2026-05-07 19:21 | 52.29324 | -3.83909 | 39990 ft | 452 kts | 291° |
| 2026-05-07 19:21 | 52.31794 | -3.93391 | 39990 ft | 452 kts | 291° |
| 2026-05-07 19:22 | 52.34248 | -4.02851 | 39995 ft | 452 kts | 291° |
| 2026-05-07 19:22 | 52.36589 | -4.11913 | 39999 ft | 453 kts | 291° |
| 2026-05-07 19:23 | 52.39030 | -4.21399 | 40002 ft | 453 kts | 291° |
| 2026-05-07 19:23 | 52.41461 | -4.30887 | 39993 ft | 452 kts | 291° |
| 2026-05-07 19:24 | 52.44144 | -4.40005 | 39999 ft | 454 kts | 300° |
| 2026-05-07 19:24 | 52.47574 | -4.48731 | 39993 ft | 454 kts | 301° |
| 2026-05-07 19:25 | 52.50969 | -4.57405 | 39994 ft | 454 kts | 301° |
| 2026-05-07 19:25 | 52.54355 | -4.66089 | 39991 ft | 454 kts | 300° |
| 2026-05-07 19:26 | 52.57766 | -4.74868 | 39993 ft | 454 kts | 300° |
| 2026-05-07 19:26 | 52.61146 | -4.83598 | 39992 ft | 454 kts | 300° |
| 2026-05-07 19:27 | 52.64435 | -4.92122 | 39991 ft | 454 kts | 300° |
| 2026-05-07 19:27 | 52.67806 | -5.00891 | 39994 ft | 454 kts | 300° |
| 2026-05-07 19:28 | 52.71080 | -5.09435 | 39989 ft | 454 kts | 300° |
| 2026-05-07 19:28 | 52.74420 | -5.18181 | 39985 ft | 454 kts | 300° |
| 2026-05-07 19:29 | 52.77773 | -5.26995 | 39986 ft | 453 kts | 300° |
| 2026-05-07 19:29 | 52.81102 | -5.35778 | 39982 ft | 453 kts | 300° |
| 2026-05-07 19:30 | 52.84242 | -5.44089 | 39986 ft | 453 kts | 300° |
| 2026-05-07 19:30 | 52.87586 | -5.52968 | 39975 ft | 453 kts | 300° |
| 2026-05-07 19:31 | 52.90829 | -5.61611 | 39969 ft | 454 kts | 300° |
| 2026-05-07 19:31 | 52.94150 | -5.70491 | 39974 ft | 454 kts | 299° |
| 2026-05-07 19:32 | 52.97469 | -5.79400 | 39970 ft | 454 kts | 299° |
| 2026-05-07 19:32 | 53.00784 | -5.88329 | 39524 ft | 462 kts | 299° |
| 2026-05-07 19:33 | 53.02452 | -5.92833 | 38894 ft | 461 kts | 299° |
| 2026-05-07 19:33 | 53.04239 | -5.97259 | 38333 ft | 461 kts | 303° |
| 2026-05-07 19:33 | 53.06133 | -6.01565 | 37842 ft | 458 kts | 303° |
| 2026-05-07 19:33 | 53.07989 | -6.05796 | 37355 ft | 456 kts | 303° |
| 2026-05-07 19:34 | 53.09856 | -6.10062 | 36779 ft | 451 kts | 303° |
| 2026-05-07 19:34 | 53.11674 | -6.14222 | 36176 ft | 445 kts | 303° |
| 2026-05-07 19:34 | 53.13470 | -6.18341 | 35572 ft | 438 kts | 303° |
| 2026-05-07 19:34 | 53.15247 | -6.22422 | 34948 ft | 437 kts | 303° |
| 2026-05-07 19:35 | 53.17025 | -6.26519 | 34240 ft | 439 kts | 303° |
| 2026-05-07 19:35 | 53.18814 | -6.30648 | 33618 ft | 439 kts | 303° |
| 2026-05-07 19:35 | 53.20605 | -6.34789 | 33038 ft | 444 kts | 303° |
| 2026-05-07 19:35 | 53.22407 | -6.38958 | 32444 ft | 444 kts | 303° |
| 2026-05-07 19:36 | 53.24069 | -6.42814 | 31863 ft | 446 kts | 303° |
| 2026-05-07 19:36 | 53.25843 | -6.46931 | 31280 ft | 440 kts | 303° |
| 2026-05-07 19:36 | 53.27615 | -6.51050 | 30685 ft | 435 kts | 303° |
| 2026-05-07 19:36 | 53.29366 | -6.55130 | 30120 ft | 430 kts | 303° |
| 2026-05-07 19:37 | 53.31085 | -6.59140 | 29547 ft | 426 kts | 303° |
| 2026-05-07 19:37 | 53.32798 | -6.63142 | 28984 ft | 423 kts | 302° |
| 2026-05-07 19:37 | 53.34515 | -6.67162 | 28409 ft | 419 kts | 302° |
| 2026-05-07 19:37 | 53.36189 | -6.71089 | 27854 ft | 415 kts | 302° |
| 2026-05-07 19:38 | 53.37839 | -6.74963 | 27302 ft | 412 kts | 302° |
| 2026-05-07 19:38 | 53.39496 | -6.78861 | 26749 ft | 408 kts | 301° |
| 2026-05-07 19:38 | 53.41132 | -6.82716 | 26201 ft | 405 kts | 301° |
| 2026-05-07 19:38 | 53.42752 | -6.86538 | 25662 ft | 401 kts | 301° |
| 2026-05-07 19:39 | 53.44358 | -6.90333 | 25122 ft | 398 kts | 301° |
| 2026-05-07 19:39 | 53.45947 | -6.94094 | 24588 ft | 395 kts | 301° |
| 2026-05-07 19:39 | 53.47511 | -6.97802 | 24071 ft | 392 kts | 301° |
| 2026-05-07 19:39 | 53.49069 | -7.01501 | 23553 ft | 389 kts | 301° |
| 2026-05-07 19:40 | 53.50623 | -7.05197 | 23029 ft | 386 kts | 301° |
| 2026-05-07 19:40 | 53.52148 | -7.08827 | 22515 ft | 383 kts | 301° |
| 2026-05-07 19:40 | 53.53686 | -7.12494 | 21994 ft | 380 kts | 301° |
| 2026-05-07 19:40 | 53.55186 | -7.16076 | 21498 ft | 377 kts | 301° |
| 2026-05-07 19:41 | 53.56697 | -7.19691 | 20987 ft | 374 kts | 301° |
| 2026-05-07 19:41 | 53.58178 | -7.23238 | 20487 ft | 371 kts | 301° |
| 2026-05-07 19:41 | 53.59637 | -7.26737 | 19991 ft | 368 kts | 301° |
| 2026-05-07 19:41 | 53.61097 | -7.30242 | 19510 ft | 365 kts | 301° |
| 2026-05-07 19:42 | 53.62551 | -7.33740 | 19013 ft | 363 kts | 301° |
| 2026-05-07 19:42 | 53.63978 | -7.37178 | 18532 ft | 359 kts | 301° |
| 2026-05-07 19:42 | 53.65406 | -7.40620 | 18050 ft | 357 kts | 301° |
| 2026-05-07 19:42 | 53.66815 | -7.44023 | 17577 ft | 354 kts | 301° |
| 2026-05-07 19:43 | 53.68225 | -7.47434 | 17105 ft | 352 kts | 302° |
| 2026-05-07 19:43 | 53.69606 | -7.50777 | 16630 ft | 350 kts | 301° |
| 2026-05-07 19:43 | 53.70984 | -7.54119 | 16171 ft | 347 kts | 302° |
| 2026-05-07 19:43 | 53.72356 | -7.57450 | 15695 ft | 345 kts | 302° |
| 2026-05-07 19:44 | 53.73720 | -7.60768 | 15233 ft | 342 kts | 302° |
| 2026-05-07 19:44 | 53.75057 | -7.64021 | 14785 ft | 340 kts | 302° |
| 2026-05-07 19:44 | 53.76403 | -7.67303 | 14327 ft | 338 kts | 301° |
| 2026-05-07 19:44 | 53.77622 | -7.70276 | 14014 ft | 335 kts | 301° |
| 2026-05-07 19:45 | 53.78958 | -7.73543 | 13513 ft | 334 kts | 301° |
| 2026-05-07 19:45 | 53.80268 | -7.76747 | 13078 ft | 331 kts | 301° |
| 2026-05-07 19:45 | 53.81570 | -7.79937 | 12630 ft | 328 kts | 301° |
| 2026-05-07 19:45 | 53.82847 | -7.83068 | 12206 ft | 322 kts | 301° |
| 2026-05-07 19:46 | 53.84095 | -7.86131 | 11785 ft | 315 kts | 301° |
| 2026-05-07 19:46 | 53.85322 | -7.89145 | 11372 ft | 307 kts | 301° |
| 2026-05-07 19:46 | 53.86519 | -7.92090 | 10964 ft | 301 kts | 301° |
| 2026-05-07 19:46 | 53.87703 | -7.95007 | 10564 ft | 296 kts | 301° |
| 2026-05-07 19:47 | 53.88845 | -7.97825 | 10167 ft | 291 kts | 302° |
| 2026-05-07 19:47 | 53.89978 | -8.00623 | 9790 ft | 286 kts | 301° |
| 2026-05-07 19:47 | 53.91091 | -8.03375 | 9404 ft | 281 kts | 301° |
| 2026-05-07 19:47 | 53.92186 | -8.06086 | 9040 ft | 278 kts | 301° |
| 2026-05-07 19:48 | 53.93276 | -8.08788 | 8645 ft | 277 kts | 301° |
| 2026-05-07 19:48 | 53.94364 | -8.11488 | 8235 ft | 277 kts | 301° |
| 2026-05-07 19:48 | 53.95444 | -8.14172 | 7808 ft | 275 kts | 301° |
| 2026-05-07 19:48 | 53.96507 | -8.16816 | 7403 ft | 273 kts | 301° |
| 2026-05-07 19:49 | 53.97503 | -8.19532 | 7064 ft | 266 kts | 290° |
| 2026-05-07 19:49 | 53.97893 | -8.22571 | 6732 ft | 267 kts | 267° |
| 2026-05-07 19:49 | 53.97630 | -8.25656 | 6241 ft | 264 kts | 257° |
| 2026-05-07 19:49 | 53.97276 | -8.28665 | 5714 ft | 257 kts | 257° |
| 2026-05-07 19:50 | 53.96943 | -8.31559 | 5325 ft | 245 kts | 258° |
| 2026-05-07 19:50 | 53.96622 | -8.34339 | 5079 ft | 234 kts | 258° |
| 2026-05-07 19:50 | 53.96316 | -8.36972 | 5028 ft | 217 kts | 258° |
| 2026-05-07 19:50 | 53.96035 | -8.39395 | 5020 ft | 203 kts | 258° |
| 2026-05-07 19:51 | 53.95766 | -8.41695 | 5006 ft | 200 kts | 258° |
| 2026-05-07 19:51 | 53.95516 | -8.43841 | 5004 ft | 200 kts | 259° |
| 2026-05-07 19:51 | 53.95243 | -8.46191 | 4788 ft | 207 kts | 259° |
| 2026-05-07 19:51 | 53.94937 | -8.48569 | 4455 ft | 206 kts | 256° |
| 2026-05-07 19:52 | 53.94622 | -8.50938 | 4168 ft | 204 kts | 257° |
| 2026-05-07 19:52 | 53.94345 | -8.53266 | 3893 ft | 201 kts | 259° |
| 2026-05-07 19:52 | 53.94076 | -8.55575 | 3619 ft | 199 kts | 259° |
| 2026-05-07 19:52 | 53.93813 | -8.57858 | 3350 ft | 197 kts | 260° |
| 2026-05-07 19:53 | 53.93553 | -8.60124 | 3089 ft | 194 kts | 260° |
| 2026-05-07 19:53 | 53.93304 | -8.62279 | 2812 ft | 176 kts | 260° |
| 2026-05-07 19:53 | 53.93073 | -8.64278 | 2604 ft | 176 kts | 261° |
| 2026-05-07 19:53 | 53.92838 | -8.66307 | 2349 ft | 172 kts | 261° |
| 2026-05-07 19:54 | 53.92618 | -8.68196 | 2148 ft | 152 kts | 260° |
| 2026-05-07 19:54 | 53.92425 | -8.69836 | 1960 ft | 134 kts | 261° |
| 2026-05-07 19:54 | 53.92253 | -8.71298 | 1791 ft | 115 kts | 262° |
| 2026-05-07 19:54 | 53.92098 | -8.72644 | 1637 ft | 120 kts | 262° |
| 2026-05-07 19:55 | 53.91944 | -8.74000 | 1458 ft | 115 kts | 262° |
| 2026-05-07 19:55 | 53.91787 | -8.75366 | 1285 ft | 118 kts | 261° |
| 2026-05-07 19:55 | 53.91629 | -8.76716 | 1144 ft | 117 kts | 261° |
| 2026-05-07 19:55 | 53.91469 | -8.78084 | 966 ft | 117 kts | 261° |
| 2026-05-07 19:56 | 53.91312 | -8.79447 | 813 ft | 118 kts | 259° |
| 2026-05-07 19:56 | 53.91149 | -8.80809 | 671 ft | 113 kts | 261° |
| 2026-05-07 19:56 | 53.91018 | -8.81860 | 642 ft | 58 kts | 258° |
| 2026-05-07 19:56 | 53.90972 | -8.82323 | 619 ft | 17 kts | 261° |
| 2026-05-07 19:57 | 53.90955 | -8.82463 | 614 ft | 6 kts | 94° |
| 2026-05-07 19:57 | 53.90974 | -8.82326 | 619 ft | 20 kts | 77° |
| 2026-05-07 19:57 | 53.91009 | -8.82037 | 634 ft | 30 kts | 76° |
| 2026-05-07 19:57 | 53.91060 | -8.81624 | 651 ft | 40 kts | 79° |
| 2026-05-07 19:58 | 53.91115 | -8.81152 | 662 ft | 35 kts | 75° |
| 2026-05-07 19:58 | 53.91151 | -8.80878 | 668 ft | 13 kts | 47° |
| 2026-05-07 19:58 | 53.91246 | -8.80888 | 670 ft | 15 kts | 348° |
| 2026-05-07 19:58 | 53.91299 | -8.80906 | 670 ft | 0 kts | 349° |
| 2026-05-07 19:59 | 53.91304 | -8.80908 | 670 ft | 2 kts | 349° |
| 2026-05-07 19:59 | 53.91333 | -8.80917 | 670 ft | 6 kts | 348° |
| 2026-05-07 19:59 | 53.91371 | -8.80930 | 669 ft | 5 kts | 348° |
| 2026-05-07 19:59 | 53.91398 | -8.80976 | 668 ft | 7 kts | 253° |
| 2026-05-07 20:00 | 53.91394 | -8.81005 | 668 ft | 0 kts | 259° |